Latest Coastal Weather Observations for Edithburgh

IDS60701

Issued at 4:45 am CDT Saturday 29 November 2014 (issued every 10 minutes, with the page automatically refreshed every 10 minutes)

About coastal observations | Map of coastal stations | Coastal observations for SA | Marine services | Other Formats
Station Details ID: 022046 Name: EDITHBURGH Lat: -35.11 Lon: 137.74 Height: 6.0 m
Data from the previous 72 hours. | See also: Recent months at Edithburgh
Date/Time
CDT
Temp

°C
Wind Pressure Rain
since 9am
mm
Weather Cloud Vis
km
Sea
Height
m
Swell
Dir
 
Speed
knots
Gust
knots
hPa Trend Height
m
Period
s
Dir
29/04:30am 15.6 E 5 5 1011.7 - 0.0 - - - - - - -
29/04:00am 15.8 ESE 3 4 1012.0 - 0.0 - - - - - - -
29/03:30am 15.5 SE 4 5 1012.2 - 0.0 - - - - - - -
29/03:00am 15.9 SSE 4 5 1012.4 - 0.0 - - - - - - -
29/02:30am 16.4 SE 4 5 1012.8 - 0.0 - - - - - - -
29/02:00am 17.2 ESE 5 8 1013.2 - 0.0 - - - - - - -
29/01:30am 17.8 ESE 8 9 1013.5 - 0.0 - - - - - - -
29/01:00am 18.0 SE 10 15 1013.9 - 0.0 - - - - - - -
29/12:30am 16.0 SE 5 7 1014.3 - 0.0 - - - - - - -
29/12:00am 16.5 S 7 8 1014.8 - 0.0 - - - - - - -
 
Date/Time
CDT
Temp

°C
Wind Pressure Rain
since 9am
mm
Weather Cloud Vis
km
Sea
Height
m
Swell
Dir
 
Speed
knots
Gust
knots
hPa Trend Height
m
Period
s
Dir
28/11:30pm 16.8 SSE 8 10 1015.4 - 0.0 - - - - - - -
28/11:00pm 17.1 SSE 7 10 1015.8 - 0.0 - - - - - - -
28/10:30pm 17.4 S 9 12 1015.8 - 0.0 - - - - - - -
28/10:00pm 17.5 S 10 13 1015.8 - 0.0 - - - - - - -
28/09:30pm 17.8 S 11 15 1015.5 - 0.0 - - - - - - -
28/09:00pm 17.7 S 12 17 1015.4 - 0.0 - - - - - - -
28/08:30pm 18.1 S 10 14 1015.5 - 0.0 - - - - - - -
28/08:00pm 18.8 SSE 11 15 1015.5 - 0.0 - - - - - - -
28/07:30pm 19.4 S 10 15 1015.4 - 0.0 - - - - - - -
28/07:00pm 19.7 S 9 13 1015.5 - 0.0 - - - - - - -
28/06:30pm 19.9 SSE 12 17 1015.3 - 0.0 - - - - - - -
28/06:00pm 20.1 S 12 15 1015.4 - 0.0 - - - - - - -
28/05:30pm 20.9 S 13 16 1015.5 - 0.0 - - - - - - -
28/05:00pm 20.3 S 10 14 1015.8 - 0.0 - - - - - - -
28/04:30pm 22.1 S 11 14 1016.1 - 0.0 - - - - - - -
28/04:00pm 21.6 SSE 11 13 1016.3 - 0.0 - - - - - - -
28/03:30pm 22.3 S 11 14 1016.6 - 0.0 - - - - - - -
28/03:00pm 21.3 SSE 11 14 1016.8 - 0.0 - - - - - - -
28/02:30pm 20.7 SSE 11 14 1017.0 - 0.0 - - - - - - -
28/02:00pm 21.3 SSE 11 14 1017.4 - 0.0 - - - - - - -
28/01:30pm 22.4 S 9 11 1017.8 - 0.0 - - - - - - -
28/01:00pm 21.3 S 8 11 1018.2 - 0.0 - - - - - - -
28/12:30pm 21.2 S 8 10 1018.5 - 0.0 - - - - - - -
28/12:00pm 20.5 SSE 8 10 1018.8 - 0.0 - - - - - - -
28/11:30am 20.3 SE 9 10 1018.9 - 0.0 - - - - - - -
28/11:00am 20.0 SE 10 12 1019.1 - 0.0 - - - - - - -
28/10:30am 19.9 SE 10 13 1019.4 - 0.0 - - - - - - -
28/10:00am 19.7 SE 9 12 1019.8 - 0.0 - - - - - - -
28/09:30am 18.7 SE 11 13 1020.0 - 0.0 - - - - - - -
28/09:00am 18.6 SE 11 14 1020.2 - 0.0 - - - - - - -
28/08:30am 17.8 SE 12 16 1020.2 - 0.0 - - - - - - -
28/08:00am 17.8 SE 10 14 1020.2 - 0.0 - - - - - - -
28/07:30am 17.2 SE 9 12 1020.1 - 0.0 - - - - - - -
28/07:00am 16.8 SE 11 14 1020.0 - 0.0 - - - - - - -
28/06:30am 16.1 SSE 10 13 1019.9 - 0.0 - - - - - - -
28/06:00am 15.8 SE 10 13 1019.7 - 0.0 - - - - - - -
28/05:30am 15.6 SSE 8 11 1019.7 - 0.0 - - - - - - -
28/05:00am 15.5 SE 8 11 1019.6 - 0.0 - - - - - - -
28/04:30am 15.7 SSE 11 14 1019.4 - 0.0 - - - - - - -
28/04:00am 15.8 SSE 13 17 1019.4 - 0.0 - - - - - - -
28/03:30am 15.8 SSE 13 17 1019.3 - 0.0 - - - - - - -
28/03:00am 15.7 SSE 15 19 1019.2 - 0.0 - - - - - - -
28/02:30am 15.6 SSE 13 18 1019.5 - 0.0 - - - - - - -
28/02:00am 15.3 SSE 11 13 1019.9 - 0.0 - - - - - - -
28/01:30am 15.4 SSE 10 15 1020.0 - 0.0 - - - - - - -
28/01:00am 15.3 SSE 10 13 1020.4 - 0.0 - - - - - - -
28/12:30am 15.4 SSE 10 13 1020.7 - 0.0 - - - - - - -
28/12:00am 15.1 SSE 8 10 1021.0 - 0.0 - - - - - - -
 
Date/Time
CDT
Temp

°C
Wind Pressure Rain
since 9am
mm
Weather Cloud Vis
km
Sea
Height
m
Swell
Dir
 
Speed
knots
Gust
knots
hPa Trend Height
m
Period
s
Dir
27/11:30pm 15.4 SE 9 13 1021.2 - 0.0 - - - - - - -
27/11:00pm 15.4 SE 10 12 1021.5 - 0.0 - - - - - - -
27/10:30pm 15.6 SE 11 16 1021.7 - 0.0 - - - - - - -
27/10:00pm 15.6 SE 11 14 1021.9 - 0.0 - - - - - - -
27/09:30pm 15.7 SE 13 18 1021.9 - 0.0 - - - - - - -
27/09:00pm 15.8 SSE 13 17 1022.1 - 0.0 - - - - - - -
27/08:30pm 15.7 SSE 13 17 1022.2 - 0.0 - - - - - - -
27/08:00pm 15.9 SSE 16 20 1021.9 - 0.0 - - - - - - -
27/07:30pm 16.3 SSE 15 19 1022.0 - 0.0 - - - - - - -
27/07:00pm 16.8 SSE 15 21 1022.0 - 0.0 - - - - - - -
27/06:30pm 17.3 SSE 16 21 1021.6 - 0.0 - - - - - - -
27/06:00pm 17.4 SSE 16 22 1021.5 - 0.0 - - - - - - -
27/05:30pm 17.9 SSE 17 23 1021.5 - 0.0 - - - - - - -
27/05:00pm 18.4 SSE 16 21 1021.7 - 0.0 - - - - - - -
27/04:30pm 18.5 SSE 15 20 1021.6 - 0.0 - - - - - - -
27/04:00pm 19.2 S 16 19 1021.8 - 0.0 - - - - - - -
27/03:30pm 19.1 SSE 16 21 1022.1 - 0.0 - - - - - - -
27/03:00pm 18.9 SSE 15 19 1022.2 - 0.0 - - - - - - -
27/02:30pm 19.5 S 15 18 1022.6 - 0.0 - - - - - - -
27/02:00pm 19.4 SSE 14 17 1022.7 - 0.0 - - - - - - -
27/01:30pm 20.6 SSE 13 16 1022.9 - 0.0 - - - - - - -
27/01:00pm 20.1 SSE 12 15 1023.2 - 0.0 - - - - - - -
27/12:30pm 20.4 SE 12 15 1023.4 - 0.0 - - - - - - -
27/12:00pm 19.5 SE 12 15 1023.6 - 0.0 - - - - - - -
27/11:30am 18.5 SE 12 15 1023.9 - 0.0 - - - - - - -
27/11:00am 18.7 SE 12 15 1024.0 - 0.0 - - - - - - -
27/10:30am 17.8 SE 12 16 1024.2 - 0.0 - - - - - - -
27/10:00am 18.3 ESE 11 15 1024.4 - 0.0 - - - - - - -
27/09:30am 18.3 SE 12 17 1024.5 - 0.0 - - - - - - -
27/09:00am 18.1 ESE 12 17 1024.6 - - - - - - - - -
27/08:30am 17.4 ESE 13 16 1024.4 - - - - - - - - -
27/08:00am 17.1 ESE 13 19 1024.2 - - - - - - - - -
27/07:30am 16.4 ESE 14 18 1024.0 - - - - - - - - -
27/07:00am 16.0 ESE 13 18 1023.7 - - - - - - - - -
27/06:30am 15.7 ESE 13 18 1023.4 - - - - - - - - -
27/06:00am 15.6 SE 15 19 1023.1 - - - - - - - - -
27/05:30am 15.5 SE 15 20 1022.8 - - - - - - - - -
27/05:00am 15.6 ESE 17 22 1022.6 - - - - - - - - -
27/04:30am 15.8 ESE 15 20 1022.6 - - - - - - - - -
27/04:00am 15.9 SE 13 20 1022.3 - - - - - - - - -
27/03:30am 15.9 SE 15 21 1022.3 - - - - - - - - -
27/03:00am 15.9 SE 15 19 1022.4 - 0.0 - - - - - - -
27/02:30am 15.9 SE 13 17 1022.8 - - - - - - - - -
27/02:00am 15.9 SE 11 15 1023.1 - - - - - - - - -
27/01:30am 15.9 SSE 12 15 1023.4 - - - - - - - - -
27/01:00am 16.1 SE 12 15 1023.7 - - - - - - - - -
27/12:30am 16.4 SE 12 17 1024.1 - - - - - - - - -
27/12:00am 16.3 SE 13 16 1024.0 - - - - - - - - -
 
Date/Time
CDT
Temp

°C
Wind Pressure Rain
since 9am
mm
Weather Cloud Vis
km
Sea
Height
m
Swell
Dir
 
Speed
knots
Gust
knots
hPa Trend Height
m
Period
s
Dir
26/11:30pm 16.5 SSE 12 16 1024.1 - - - - - - - - -
26/11:00pm 16.5 SE 14 18 1024.0 - - - - - - - - -
26/10:30pm 16.5 SE 12 17 1023.9 - - - - - - - - -
26/10:00pm 16.3 SSE 14 19 1023.8 - - - - - - - - -
26/09:30pm 16.4 SE 14 20 1023.6 - - - - - - - - -
26/09:00pm 16.5 SSE 15 19 1023.5 - 0.0 - - - - - - -
26/08:30pm 16.3 SSE 14 20 1023.3 - - - - - - - - -
26/08:00pm 16.3 SSE 15 21 1023.2 - - - - - - - - -
26/07:30pm 16.6 SSE 15 21 1022.9 - - - - - - - - -
26/07:00pm 17.0 SSE 15 19 1022.7 - - - - - - - - -
26/06:30pm 17.4 SSE 15 19 1022.5 - - - - - - - - -
26/06:00pm 17.9 SSE 15 20 1022.3 - - - - - - - - -
26/05:30pm 18.6 SSE 16 21 1022.2 - - - - - - - - -
26/05:00pm 18.3 SSE 15 19 1022.4 - - - - - - - - -
26/04:30pm 18.4 S 15 20 1022.5 - - - - - - - - -
26/04:00pm 19.3 S 14 18 1022.7 - - - - - - - - -
26/03:30pm 19.2 S 14 19 1022.7 - - - - - - - - -
26/03:00pm 18.8 S 13 17 1023.0 - - - - - - - - -
26/02:30pm 19.1 S 13 18 1023.2 - - - - - - - - -
26/02:00pm 19.1 S 12 15 1023.4 - - - - - - - - -
26/01:30pm 18.8 SSE 11 15 1023.8 - - - - - - - - -
26/01:00pm 18.8 SSE 11 15 1024.1 - - - - - - - - -

Other Formats:

Comma delimited format used in spreadsheet applications
http://www.bom.gov.au/fwo/IDS60701/IDS60701.94809.axf

JavaScript Object Notation format (JSON) in row-major order
http://www.bom.gov.au/fwo/IDS60701/IDS60701.94809.json